Pagrindinis puslapis
METAR-TAF:

METAR-TAF

Oro uostai :

Izmitas, Turkija

platuma: 40-44N, ilguma: 030-05E, Aukštis: 50 m

Dabartinis oras

Ataskaita buvo paskelbta 20 minutes, ne 01:50 UTC
Ramus vėjas
Temperatūra -13°C
Drėgmė 92%
Slėgis 1024 hPa
Matomumas 10 km arba daugiau
Mažai debesys ne aukštis 3500 ft

METAR: LTBQ 190150Z 00000KT 9999 FEW035 M13/M14 Q1024 NOSIG

Laikas: 05:10 (02:10 UTC)

Prognozė

Ataskaita buvo paskelbta 3 valandos ir 30 minutes, ne 22:40 UTC
Prognozė galioja nuo 19 metu 00 UTC su 19 metu 09 UTC
Vėjas 2 kt nuo kintamojo kryptimis
Matomumas 10 km arba daugiau
Išsisklaidę debesys ne aukštis 3500 ft
Tikimybė 30% :
Laikinai
nuo 19 metu 03 UTC su 19 metu 06 UTC
Matomumas: 1500 m
Su prošvaistėmis ne aukštis 500 ft
Rūkas lopais

TAF: LTBQ 182240Z 1900/1909 VRB02KT 9999 SCT035 PROB30 TEMPO 1903/1906 1500 BCFG BKN005

Orai ataskaitas ir orų prognozės (METAR, TAF).

turimą stotys yra geltonos ir raudonos taškus žemėlapyje.

Perkelti pele per norėdami pamatyti stoties vardą.

Tada spustelėkite, norėdami matyti oro stebėjimo ir prognozės.

Norėdami pakeisti žemėlapį: spustelėkite ant žalios mygtukų su juodo kryžiaus žemyn,; žalią mygtuką su brūkšneliu, jei norite nutolinti; arba žalių rodyklių gretimoms žemėlapius.


METAR-TAF: